createdAt,value
2023-04-17T00:02:25.707Z,7.40
2023-04-17T00:07:28.682Z,7.00
2023-04-17T00:12:31.206Z,7.60
2023-04-17T00:17:33.836Z,7.30
2023-04-17T00:22:37.385Z,7.80
2023-04-17T00:27:40.734Z,7.30
2023-04-17T00:32:43.486Z,7.00
2023-04-17T00:37:47.393Z,7.60
2023-04-17T00:42:53.054Z,7.60
2023-04-17T00:47:58.673Z,8.00
2023-04-17T00:53:01.619Z,7.30
2023-04-17T00:58:04.563Z,7.30
2023-04-17T01:03:08.475Z,8.30
2023-04-17T01:08:11.260Z,7.50
2023-04-17T01:13:13.837Z,8.30
2023-04-17T01:18:16.592Z,9.00
2023-04-17T01:23:19.106Z,8.70
2023-04-17T01:28:21.618Z,8.20
2023-04-17T01:33:24.115Z,8.60
2023-04-17T01:38:26.619Z,8.90
2023-04-17T01:43:29.163Z,9.60
2023-04-17T01:48:32.144Z,9.00
2023-04-17T01:53:35.485Z,8.50
2023-04-17T01:58:37.998Z,9.20
2023-04-17T02:03:40.629Z,9.40
2023-04-17T02:08:43.329Z,9.40
2023-04-17T02:13:45.855Z,8.60
2023-04-17T02:18:49.599Z,8.70
2023-04-17T02:23:52.204Z,8.50
2023-04-17T02:28:54.784Z,8.80
2023-04-17T02:33:57.392Z,7.40
2023-04-17T02:38:59.898Z,8.60
2023-04-17T02:44:02.578Z,9.10
2023-04-17T02:49:05.109Z,8.70
2023-04-17T02:54:07.652Z,11.00
2023-04-17T02:59:10.517Z,8.40
2023-04-17T03:04:13.363Z,7.30
2023-04-17T03:09:16.442Z,8.30
2023-04-17T03:14:18.933Z,8.50
2023-04-17T03:19:21.477Z,7.50
2023-04-17T03:24:24.065Z,8.80
2023-04-17T03:29:26.837Z,9.40
2023-04-17T03:34:31.624Z,11.40
2023-04-17T03:39:34.144Z,8.90
2023-04-17T03:44:36.709Z,9.00
2023-04-17T03:49:39.196Z,7.50
2023-04-17T03:54:42.499Z,8.70
2023-04-17T03:59:45.013Z,8.70
2023-04-17T04:04:48.281Z,7.30
2023-04-17T04:09:51.036Z,7.50
2023-04-17T04:14:53.581Z,6.90
2023-04-17T04:19:56.126Z,6.30
2023-04-17T04:24:59.304Z,6.80
2023-04-17T04:30:03.521Z,6.90
2023-04-17T04:35:06.633Z,6.40
2023-04-17T04:40:10.957Z,6.50
2023-04-17T04:45:13.556Z,5.50
2023-04-17T04:50:16.489Z,6.20
2023-04-17T04:55:19.697Z,6.80
2023-04-17T05:00:23.757Z,6.00
2023-04-17T05:05:26.402Z,5.50
2023-04-17T05:10:28.909Z,5.00
2023-04-17T05:15:31.492Z,5.80
2023-04-17T05:20:34.045Z,5.50
2023-04-17T05:25:36.669Z,5.20
2023-04-17T05:30:39.334Z,4.50
2023-04-17T05:35:41.897Z,4.40
2023-04-17T05:40:44.631Z,4.70
2023-04-17T05:45:51.954Z,4.60
2023-04-17T05:50:56.435Z,3.90
2023-04-17T05:55:59.057Z,4.20
2023-04-17T06:01:02.465Z,4.10
2023-04-17T06:06:05.413Z,3.40
2023-04-17T06:11:08.040Z,3.50
2023-04-17T06:16:10.580Z,3.30
2023-04-17T06:21:13.346Z,3.60
2023-04-17T06:26:16.123Z,2.80
2023-04-17T06:31:18.671Z,3.40
2023-04-17T06:36:21.288Z,3.60
2023-04-17T06:41:23.879Z,2.60
2023-04-17T06:46:26.498Z,2.60
2023-04-17T06:51:29.254Z,3.80
2023-04-17T06:56:31.844Z,2.60
2023-04-17T07:01:35.061Z,2.60
2023-04-17T07:06:39.417Z,3.40
2023-04-17T07:11:42.108Z,3.50
2023-04-17T07:16:44.656Z,2.80
2023-04-17T07:21:47.230Z,2.80
2023-04-17T07:26:49.859Z,3.20
2023-04-17T07:31:52.496Z,3.20
2023-04-17T07:36:55.226Z,3.20
2023-04-17T07:41:57.777Z,3.30
2023-04-17T07:47:00.916Z,2.80
2023-04-17T07:52:03.524Z,3.30
2023-04-17T07:57:06.056Z,2.90
2023-04-17T08:02:08.716Z,3.40
2023-04-17T08:07:12.606Z,3.40
2023-04-17T08:12:15.410Z,3.30
2023-04-17T08:17:22.742Z,4.10
2023-04-17T08:22:25.978Z,3.40
2023-04-17T08:27:28.627Z,3.80
2023-04-17T08:32:38.039Z,3.30
2023-04-17T08:37:42.307Z,3.60
2023-04-17T08:42:47.728Z,3.60
2023-04-17T08:52:53.924Z,4.00
2023-04-17T08:58:02.184Z,3.60
2023-04-17T09:03:08.015Z,4.00
2023-04-17T09:08:20.986Z,3.90
2023-04-17T09:13:26.070Z,4.20
2023-04-17T09:18:33.625Z,4.10
2023-04-17T09:23:48.911Z,4.00
2023-04-17T09:29:04.222Z,4.70
2023-04-17T09:34:11.014Z,4.60
2023-04-17T09:39:23.897Z,3.90
2023-04-17T09:44:29.921Z,4.40
2023-04-17T09:49:38.272Z,4.60
2023-04-17T09:54:42.739Z,4.10
2023-04-17T09:59:49.431Z,2.90
2023-04-17T10:04:52.504Z,3.70
2023-04-17T10:09:55.605Z,3.60
2023-04-17T10:14:58.241Z,4.00
2023-04-17T10:20:20.036Z,3.70
2023-04-17T10:25:25.210Z,4.00
2023-04-17T10:30:54.820Z,3.60
2023-04-17T10:35:58.085Z,4.10
2023-04-17T10:41:08.430Z,4.20
2023-04-17T10:46:13.146Z,4.40
2023-04-17T10:51:21.676Z,4.20
2023-04-17T10:56:30.771Z,3.80
2023-04-17T11:01:48.875Z,3.80
2023-04-17T11:06:55.542Z,4.10
2023-04-17T11:12:01.819Z,4.40
2023-04-17T11:17:04.968Z,5.10
2023-04-17T11:22:10.125Z,4.70
2023-04-17T11:27:12.819Z,3.90
2023-04-17T11:32:15.520Z,4.60
2023-04-17T11:37:18.086Z,4.70
2023-04-17T11:42:29.659Z,4.30
2023-04-17T11:47:32.361Z,4.40
2023-04-17T11:52:34.855Z,4.40
2023-04-17T11:57:43.532Z,5.10
2023-04-17T12:02:46.273Z,7.70
2023-04-17T12:08:00.148Z,5.50
2023-04-17T12:13:02.747Z,6.00
2023-04-17T12:18:06.242Z,5.70
2023-04-17T12:23:08.902Z,4.30
2023-04-17T12:28:11.427Z,5.20
2023-04-17T12:33:14.161Z,5.20
2023-04-17T12:38:17.117Z,4.60
2023-04-17T12:43:21.212Z,4.10
2023-04-17T12:48:23.884Z,3.70
2023-04-17T12:53:26.392Z,4.20
2023-04-17T12:58:29.034Z,3.60
2023-04-17T13:03:31.644Z,4.70
2023-04-17T13:08:34.287Z,3.90
2023-04-17T13:13:36.796Z,4.60
2023-04-17T13:18:39.301Z,3.90
2023-04-17T13:23:41.842Z,4.10
2023-04-17T13:28:44.412Z,3.70
2023-04-17T13:33:46.972Z,4.60
2023-04-17T13:38:49.538Z,5.40
2023-04-17T13:43:52.145Z,6.60
2023-04-17T13:48:55.302Z,5.20
2023-04-17T13:54:00.894Z,4.30
2023-04-17T14:04:08.038Z,5.40
2023-04-17T14:09:11.576Z,5.50
2023-04-17T14:14:15.330Z,5.00
2023-04-17T14:19:18.184Z,4.90
2023-04-17T14:24:20.921Z,5.10
2023-04-17T14:29:23.485Z,5.40
2023-04-17T14:34:26.081Z,5.60
2023-04-17T14:39:30.869Z,5.40
2023-04-17T14:44:34.063Z,4.50
2023-04-17T14:49:36.688Z,4.50
2023-04-17T14:54:39.220Z,5.10
2023-04-17T14:59:44.289Z,4.60
2023-04-17T15:04:48.832Z,3.60
2023-04-17T15:09:51.379Z,4.70
2023-04-17T15:14:54.086Z,5.00
2023-04-17T15:20:00.773Z,3.60
2023-04-17T15:25:03.632Z,4.60
2023-04-17T15:30:08.887Z,4.40
2023-04-17T15:35:11.502Z,4.50
2023-04-17T15:40:14.184Z,4.10
2023-04-17T15:45:16.829Z,3.40
2023-04-17T15:50:21.181Z,4.10
2023-04-17T15:55:24.602Z,4.20
2023-04-17T16:00:27.466Z,4.30
2023-04-17T16:05:30.575Z,3.90
2023-04-17T16:10:34.800Z,4.20
2023-04-17T16:15:37.369Z,3.90
2023-04-17T16:20:40.154Z,3.80
2023-04-17T16:25:42.785Z,3.70
2023-04-17T16:30:45.406Z,2.70
2023-04-17T16:35:47.987Z,3.60
2023-04-17T16:40:53.410Z,3.50
2023-04-17T16:45:56.357Z,3.70
2023-04-17T16:51:05.669Z,3.80
2023-04-17T16:56:08.654Z,3.10
2023-04-17T17:01:12.172Z,2.90
2023-04-17T17:06:17.449Z,3.20
2023-04-17T17:11:20.173Z,3.60
2023-04-17T17:16:23.013Z,3.00
2023-04-17T17:21:26.401Z,3.70
2023-04-17T17:26:29.050Z,3.50
2023-04-17T17:31:33.053Z,3.70
2023-04-17T17:36:35.999Z,4.00
2023-04-17T17:41:38.801Z,3.60
2023-04-17T17:46:41.687Z,4.50
2023-04-17T17:51:44.386Z,5.20
2023-04-17T17:56:47.005Z,4.30
2023-04-17T18:01:49.793Z,5.60
2023-04-17T18:06:52.749Z,6.70
2023-04-17T18:11:55.825Z,5.70
2023-04-17T18:16:58.369Z,6.80
2023-04-17T18:22:01.025Z,7.60
2023-04-17T18:27:04.090Z,7.00
2023-04-17T18:32:06.615Z,7.60
2023-04-17T18:37:09.211Z,9.40
2023-04-17T18:42:11.977Z,8.40
2023-04-17T18:47:14.626Z,7.60
2023-04-17T18:52:17.320Z,8.20
2023-04-17T18:57:20.020Z,5.60
2023-04-17T19:02:23.209Z,8.20
2023-04-17T19:07:28.771Z,7.90
2023-04-17T19:12:31.539Z,8.70
2023-04-17T19:17:35.181Z,8.90
2023-04-17T19:22:38.699Z,8.20
2023-04-17T19:27:41.567Z,8.80
2023-04-17T19:32:44.677Z,9.20
2023-04-17T19:37:47.884Z,8.60
2023-04-17T19:42:51.061Z,8.50
2023-04-17T19:47:57.279Z,8.40
2023-04-17T19:53:00.776Z,7.00
2023-04-17T19:58:03.704Z,5.60
2023-04-17T20:03:06.487Z,9.00
2023-04-17T20:08:09.709Z,8.70
2023-04-17T20:13:14.519Z,8.50
2023-04-17T20:18:17.664Z,8.90
2023-04-17T20:23:20.404Z,9.30
2023-04-17T20:28:23.067Z,9.30
2023-04-17T20:33:25.765Z,10.00
2023-04-17T20:38:32.211Z,9.50
2023-04-17T20:43:34.843Z,9.10
2023-04-17T20:48:41.812Z,9.50
2023-04-17T20:53:44.872Z,8.90
2023-04-17T20:58:49.816Z,9.70
2023-04-17T21:03:52.777Z,10.00
2023-04-17T21:08:55.411Z,11.90
2023-04-17T21:14:00.337Z,11.20
2023-04-17T21:19:02.934Z,10.30
2023-04-17T21:24:06.141Z,10.60
2023-04-17T21:29:10.007Z,9.90
2023-04-17T21:34:12.782Z,10.10
2023-04-17T21:39:16.804Z,9.40
2023-04-17T21:44:19.326Z,12.20
2023-04-17T21:49:22.713Z,12.20
2023-04-17T21:54:27.976Z,12.60
2023-04-17T21:59:30.784Z,12.00
2023-04-17T22:04:33.361Z,11.70
2023-04-17T22:09:36.087Z,12.40
2023-04-17T22:14:40.551Z,12.90
2023-04-17T22:19:43.123Z,13.50
2023-04-17T22:24:45.969Z,12.20
2023-04-17T22:29:48.501Z,12.90
2023-04-17T22:34:51.036Z,11.60
2023-04-17T22:39:53.558Z,13.90
2023-04-17T22:44:56.321Z,12.20
2023-04-17T22:55:37.346Z,10.20
2023-04-17T23:00:40.073Z,11.50
2023-04-17T23:05:42.560Z,10.90
2023-04-17T23:10:45.220Z,11.90
2023-04-17T23:15:47.764Z,12.90
2023-04-17T23:20:50.400Z,14.30
2023-04-17T23:25:52.994Z,13.90
2023-04-17T23:30:56.275Z,11.80
2023-04-17T23:35:59.602Z,11.00
2023-04-17T23:41:02.162Z,10.70
2023-04-17T23:46:04.722Z,11.70
2023-04-17T23:51:07.327Z,12.50
2023-04-17T23:56:09.915Z,12.30
